Aberdeen, South Dakota
Current Conditions -  °F | °C
As of 7:53 PM on Monday 20 Oct 2014 (Local Time) from KABR Reporting Station
Clear Clear  
Wind Chill: 47°   Ceiling: Unl
Heat Index: 49°   Visibility: 10mi
Dew Point: 34°   Wind: 6mph
Humidity: 56%   Direction: 110°ESE
Pressure: 30.01"   Gusts: NA
Location:  45.46°N, 98.49°W
Report Text: KABR 210053Z AUTO 11005KT 10SM CLR 09/01 A3001 RMK AO2 SLP174 T00940011
Loading
Personal Weather Stations






























Interactive Weather Map New forecast layout! Learn more

10-Day Weather Forecast

Advertisements
Track Severe Weather on mobile